createdAt,value
2023-03-24T10:29:28.100Z,116.53
2023-03-24T10:32:06.088Z,108.80
2023-03-24T10:34:35.531Z,117.77
2023-03-24T10:37:05.197Z,108.53
2023-03-24T10:39:44.082Z,106.33
2023-03-24T10:42:21.747Z,103.00
2023-03-24T10:44:53.109Z,102.13
2023-03-24T16:03:06.918Z,86.23
2023-03-24T16:05:35.932Z,80.53
2023-03-24T16:08:06.841Z,83.23
2023-03-24T16:10:40.216Z,79.90
2023-03-24T16:13:16.344Z,80.57
2023-03-24T16:15:46.262Z,80.80
2023-03-24T16:18:21.539Z,80.07
2023-03-24T16:20:51.813Z,87.13
2023-03-24T16:23:20.051Z,92.17
2023-03-24T16:25:48.283Z,78.27
2023-03-24T16:28:20.096Z,80.83
2023-03-24T16:30:54.798Z,84.97
2023-03-24T16:33:24.274Z,91.13
2023-03-24T16:35:52.417Z,89.17
2023-03-24T16:38:21.797Z,91.77
2023-03-24T16:40:52.441Z,86.60
2023-03-24T16:43:20.857Z,82.03
2023-03-24T16:45:50.107Z,88.47
2023-03-24T16:48:18.823Z,86.83
2023-03-24T16:50:51.732Z,79.43
2023-03-24T16:53:20.410Z,82.57
2023-03-24T16:55:48.886Z,91.30
2023-03-24T16:58:18.228Z,79.10
2023-03-24T17:00:49.238Z,81.83
2023-03-24T17:03:18.301Z,79.47
2023-03-24T17:05:50.690Z,78.33
2023-03-24T17:08:19.845Z,86.10
2023-03-24T17:10:50.961Z,79.60
2023-03-24T17:13:21.412Z,85.73
2023-03-24T17:15:49.682Z,80.97
2023-03-24T17:18:17.823Z,80.30
2023-03-24T17:20:47.116Z,76.43
2023-03-24T17:23:18.579Z,98.47
2023-03-24T17:25:46.850Z,77.77
2023-03-24T17:28:16.282Z,78.37
2023-03-24T17:30:45.328Z,79.50
2023-03-24T17:33:14.560Z,83.40
2023-03-24T17:35:45.427Z,79.43
2023-03-24T17:38:14.541Z,83.70
2023-03-24T17:40:44.021Z,78.20
2023-03-24T17:43:12.160Z,80.17
2023-03-24T17:45:41.633Z,82.83
2023-03-24T17:48:09.862Z,79.87
2023-03-24T17:50:38.006Z,84.77
2023-03-24T17:53:06.193Z,81.10
2023-03-24T17:55:34.318Z,92.93
2023-03-24T17:58:03.735Z,88.00
2023-03-24T18:00:31.905Z,84.63
2023-03-24T18:03:00.151Z,84.83
2023-03-24T18:05:28.384Z,84.63
2023-03-24T18:07:56.784Z,99.40
2023-03-24T18:10:24.758Z,80.23
2023-03-24T18:12:53.262Z,81.47
2023-03-24T20:49:21.852Z,83.73
2023-03-24T20:51:49.874Z,73.63
2023-03-24T20:54:18.431Z,73.20
2023-03-24T20:56:46.855Z,84.17
2023-03-24T20:59:14.926Z,78.93
2023-03-24T21:01:43.124Z,82.30
2023-03-24T21:04:11.451Z,80.13
2023-03-24T21:06:40.833Z,81.60
2023-03-24T21:09:09.018Z,76.63
2023-03-24T21:11:37.201Z,84.53
2023-03-24T21:14:05.589Z,81.03
2023-03-24T21:16:37.663Z,82.73
2023-03-24T21:19:06.446Z,82.87
2023-03-24T21:21:34.520Z,85.27
2023-03-24T21:24:04.412Z,80.90
2023-03-24T21:26:32.684Z,80.00
2023-03-24T21:29:00.842Z,84.93
2023-03-24T21:31:30.375Z,86.97
2023-03-24T21:33:58.778Z,85.30
2023-03-24T21:36:29.876Z,84.23
2023-03-24T21:38:58.565Z,84.63
2023-03-24T21:41:28.879Z,82.73
2023-03-24T21:44:00.507Z,86.67
2023-03-24T21:46:28.794Z,81.17
2023-03-24T21:48:59.235Z,86.20
2023-03-24T21:51:34.324Z,90.43
2023-03-24T21:54:04.382Z,88.90
2023-03-24T21:56:35.127Z,89.13
2023-03-24T21:59:03.378Z,87.90
2023-03-24T22:01:34.078Z,83.80
2023-03-24T22:04:03.483Z,90.63
2023-03-24T22:06:37.362Z,85.37
2023-03-24T22:09:08.312Z,83.37
2023-03-24T22:11:42.604Z,84.03
2023-03-24T22:14:11.261Z,88.77
2023-03-24T22:16:39.448Z,85.27
2023-03-24T22:19:07.541Z,83.90
2023-03-24T22:21:36.339Z,89.70
2023-03-24T22:24:06.013Z,84.73
2023-03-24T22:26:34.205Z,88.47
2023-03-24T22:29:03.655Z,87.30
2023-03-24T22:31:31.850Z,85.13
2023-03-24T22:34:00.073Z,89.57
2023-03-24T22:36:28.510Z,87.60
2023-03-24T22:38:56.498Z,86.80
2023-03-24T22:41:25.038Z,87.70
2023-03-24T22:43:53.171Z,86.90
2023-03-24T22:46:24.488Z,85.27
2023-03-24T22:48:52.800Z,91.37
2023-03-24T22:51:21.358Z,86.17
2023-03-24T22:53:49.820Z,92.90
2023-03-24T22:56:18.243Z,85.57
2023-03-24T22:58:46.360Z,94.80
2023-03-24T23:01:14.478Z,88.67
2023-03-24T23:03:44.034Z,88.30
2023-03-24T23:06:13.116Z,85.70
2023-03-24T23:08:41.170Z,83.33
2023-03-24T23:11:10.581Z,67.87
2023-03-24T23:13:38.931Z,66.67
2023-03-24T23:16:07.819Z,69.30
2023-03-24T23:18:36.296Z,72.30
2023-03-24T23:21:08.206Z,68.00
2023-03-24T23:23:37.614Z,70.37
2023-03-24T23:26:06.962Z,72.80
2023-03-24T23:28:36.004Z,68.47
2023-03-24T23:31:13.599Z,73.00
2023-03-24T23:33:42.313Z,66.10
2023-03-24T23:36:17.090Z,65.87
2023-03-24T23:38:50.610Z,70.20
2023-03-24T23:41:19.529Z,70.30
2023-03-24T23:43:50.296Z,69.03
2023-03-24T23:46:19.131Z,70.83
2023-03-24T23:48:47.714Z,70.13
2023-03-24T23:51:17.317Z,69.40
2023-03-24T23:53:45.498Z,66.30
2023-03-24T23:56:15.054Z,69.03
2023-03-24T23:58:43.807Z,69.93
